Time;durP1;ratioP1;P1;durP2;ratioP2;P2;SDS_P1;SDS_P2;PMS_P1;PMS_P2;Temp;Humidity;BMP_temperature;BMP_pressure;BME280_temperature;BME280_humidity;BME280_pressure;Samples;Min_cycle;Max_cycle;Signal;HPM_P1;HPM_P2
2022/08/10 00:01:52;;;;;;;1.83;1.45;;;;;;;23.09;38.91;99803.31;4499503;31;34263;-79
2022/08/10 00:04:22;;;;;;;3.47;1.50;;;;;;;23.14;38.65;99806.56;4488544;31;33918;-79
2022/08/10 00:06:52;;;;;;;3.45;1.25;;;;;;;22.96;39.11;99800.44;4491753;31;35156;-80
2022/08/10 00:09:20;;;;;;;5.15;1.17;;;;;;;23.17;38.84;99801.09;4499369;31;35172;-78
2022/08/10 00:11:48;;;;;;;4.85;1.37;;;;;;;23.06;38.99;99793.69;4499468;31;34199;-80
2022/08/10 00:14:16;;;;;;;3.28;1.40;;;;;;;23.20;38.81;99790.28;4501576;31;34044;-81
2022/08/10 00:16:44;;;;;;;3.10;1.52;;;;;;;23.17;38.81;99793.13;4494447;31;35966;-81
2022/08/10 00:19:13;;;;;;;2.33;1.48;;;;;;;23.32;38.77;99782.56;4485480;32;34436;-80
2022/08/10 00:21:45;;;;;;;2.10;1.40;;;;;;;23.51;38.09;99785.91;4492134;31;33173;-80
2022/08/10 00:24:13;;;;;;;3.65;1.37;;;;;;;23.28;38.61;99781.91;4501312;31;33949;-81
2022/08/10 00:26:42;;;;;;;1.62;1.10;;;;;;;23.14;38.95;99784.47;4499778;31;35946;-80
2022/08/10 00:29:30;;;;;;;2.80;1.40;;;;;;;23.23;38.78;99784.81;4502395;31;35292;-78
2022/08/10 00:31:58;;;;;;;4.70;1.52;;;;;;;23.06;39.01;99790.19;4501594;31;34265;-77
2022/08/10 00:34:27;;;;;;;2.37;1.30;;;;;;;22.80;39.76;99776.53;4488154;31;33594;-80
2022/08/10 00:36:56;;;;;;;4.75;1.60;;;;;;;22.68;39.92;99785.16;4486513;31;34070;-79
2022/08/10 00:39:25;;;;;;;2.12;1.27;;;;;;;22.91;39.64;99790.06;4487727;31;36069;-81
2022/08/10 00:41:53;;;;;;;2.78;1.70;;;;;;;23.08;39.30;99778.56;4501441;31;33511;-78
2022/08/10 00:44:41;;;;;;;2.60;1.20;;;;;;;22.45;40.50;99779.28;4502417;31;33922;-80
2022/08/10 00:47:13;;;;;;;3.35;1.98;;;;;;;22.34;40.83;99779.84;4500205;31;34937;-81
2022/08/10 00:50:03;;;;;;;2.08;1.30;;;;;;;22.72;40.12;99781.38;4490167;31;33144;-79
2022/08/10 00:52:32;;;;;;;1.70;1.20;;;;;;;22.47;40.57;99782.69;4473317;32;33428;-80
2022/08/10 00:55:01;;;;;;;3.05;1.60;;;;;;;22.77;40.16;99782.00;4481413;32;33318;-79
2022/08/10 00:57:30;;;;;;;1.65;1.25;;;;;;;22.78;40.22;99785.50;4500122;31;35420;-78
2022/08/10 00:59:58;;;;;;;2.35;1.40;;;;;;;23.14;39.47;99787.97;4501077;31;34311;-78
2022/08/10 01:02:29;;;;;;;3.95;1.48;;;;;;;22.75;40.38;99786.53;4484072;32;34362;-80
2022/08/10 01:05:02;;;;;;;3.42;1.65;;;;;;;22.58;40.76;99776.81;4486356;32;33165;-79
2022/08/10 01:07:48;;;;;;;5.28;1.80;;;;;;;22.74;40.55;99781.31;4498138;31;35277;-79
2022/08/10 01:10:16;;;;;;;4.65;1.77;;;;;;;22.55;40.91;99781.44;4498856;31;34430;-81
2022/08/10 01:13:00;;;;;;;5.43;1.80;;;;;;;22.61;40.75;99781.97;4499581;31;32757;-82
2022/08/10 01:15:35;;;;;;;2.33;1.48;;;;;;;22.40;41.40;99785.75;4500341;31;34055;-78
2022/08/10 01:18:06;;;;;;;2.10;1.37;;;;;;;22.49;41.21;99788.78;4501123;31;35101;-81
2022/08/10 01:20:53;;;;;;;2.47;1.60;;;;;;;22.51;41.18;99784.25;4501179;31;34565;-80
2022/08/10 01:23:39;;;;;;;;;;;;;;;22.43;41.42;99778.50;4501300;31;34257;-80
2022/08/10 01:26:13;;;;;;;1.97;1.23;;;;;;;22.19;41.99;99774.44;4498881;31;34676;-80
2022/08/10 01:29:25;;;;;;;1.98;1.40;;;;;;;22.50;41.38;99774.56;4498931;31;35111;-78
2022/08/10 01:31:55;;;;;;;2.40;1.45;;;;;;;22.31;41.74;99785.31;4498523;31;34520;-81
2022/08/10 01:34:40;;;;;;;3.15;1.50;;;;;;;22.47;41.62;99785.34;4501286;31;33606;-81
2022/08/10 01:37:12;;;;;;;3.65;1.73;;;;;;;22.46;41.63;99778.31;4500858;31;33919;-82
2022/08/10 01:39:43;;;;;;;2.58;1.50;;;;;;;22.06;42.54;99784.81;4500775;31;35942;-81
2022/08/10 01:42:14;;;;;;;4.93;1.52;;;;;;;22.18;42.14;99783.31;4499342;31;34572;-81
2022/08/10 01:44:47;;;;;;;4.30;1.70;;;;;;;22.53;41.56;99792.12;4493125;31;32745;-80
2022/08/10 01:50:07;;;;;;;3.28;1.67;;;;;;;21.88;43.33;99790.13;4500721;31;35160;-80
2022/08/10 01:52:36;;;;;;;4.07;1.70;;;;;;;22.37;42.26;99793.88;4499261;31;35072;-80
2022/08/10 01:55:05;;;;;;;2.50;1.60;;;;;;;22.11;42.81;99788.97;4469393;32;34252;-79
2022/08/10 01:57:34;;;;;;;4.60;1.50;;;;;;;22.41;42.11;99790.97;4466975;32;34733;-80
2022/08/10 02:00:03;;;;;;;2.37;1.50;;;;;;;22.22;42.64;99795.47;4467921;32;35959;-78
2022/08/10 02:02:32;;;;;;;2.10;1.33;;;;;;;21.67;43.96;99789.41;4469218;32;34606;-78
2022/08/10 02:05:04;;;;;;;3.55;1.73;;;;;;;22.08;43.12;99793.56;4467285;32;33609;-78
2022/08/10 02:07:32;;;;;;;2.12;1.45;;;;;;;22.10;43.08;99792.53;4460089;32;33847;-79
2022/08/10 02:10:08;;;;;;;1.40;1.30;;;;;;;21.84;43.68;99791.19;4470152;32;35135;-81
2022/08/10 02:12:36;;;;;;;3.95;1.90;;;;;;;22.06;43.24;99796.28;4469033;32;34573;-80
2022/08/10 02:15:09;;;;;;;5.03;1.58;;;;;;;21.91;43.66;99797.91;4467767;32;33413;-82
2022/08/10 02:17:44;;;;;;;2.10;1.40;;;;;;;21.96;43.56;99800.34;4468410;32;32772;-81
2022/08/10 02:20:38;;;;;;;3.87;1.73;;;;;;;22.33;42.88;99793.19;4469025;32;35131;-81
2022/08/10 02:23:14;;;;;;;5.53;1.55;;;;;;;22.21;43.10;99793.78;4454384;32;36216;-81
2022/08/10 02:25:43;;;;;;;2.22;1.48;;;;;;;22.12;43.36;99795.97;4466752;32;33508;-78
2022/08/10 02:28:15;;;;;;;2.08;1.27;;;;;;;22.18;43.30;99793.94;4468876;32;34715;-81
2022/08/10 02:30:59;;;;;;;5.40;2.03;;;;;;;22.28;43.00;99785.44;4467888;32;35055;-81
2022/08/10 02:33:28;;;;;;;2.50;1.65;;;;;;;22.10;43.65;99797.84;4469173;32;34462;-81
2022/08/10 02:35:58;;;;;;;3.33;1.67;;;;;;;21.88;44.13;99797.22;4468841;32;34272;-80
2022/08/10 02:38:44;;;;;;;1.80;1.42;;;;;;;22.47;42.79;99801.28;4455228;32;33382;-80
2022/08/10 02:41:47;;;;;;;1.55;1.27;;;;;;;22.43;42.83;99805.03;4451936;32;35342;-81
2022/08/10 02:44:34;;;;;;;2.65;1.75;;;;;;;;;;4453352;32;34416;-81
2022/08/10 02:47:30;;;;;;;4.10;1.42;;;;;;;22.10;43.79;99805.81;4466928;32;34714;-81
2022/08/10 02:50:25;;;;;;;3.35;1.85;;;;;;;21.76;44.49;99804.84;4468691;32;33729;-82
2022/08/10 02:53:12;;;;;;;2.97;1.48;;;;;;;22.05;43.91;99809.63;4471137;31;35855;-78
2022/08/10 02:56:05;;;;;;;3.40;1.87;;;;;;;22.00;43.96;99806.34;4488357;31;34514;-78
2022/08/10 02:58:37;;;;;;;2.87;2.00;;;;;;;21.86;44.45;99817.63;4498751;31;33452;-80
2022/08/10 03:01:11;;;;;;;3.65;1.98;;;;;;;21.68;44.88;99828.22;4499191;31;34626;-80
2022/08/10 03:03:44;;;;;;;3.37;1.67;;;;;;;21.96;44.18;99822.41;4499923;31;35986;-78
2022/08/10 03:06:18;;;;;;;2.97;1.70;;;;;;;21.68;44.86;99827.38;4500423;31;34861;-81
2022/08/10 03:08:47;;;;;;;3.28;1.70;;;;;;;21.70;44.83;99830.78;4501228;31;33473;-81
2022/08/10 03:11:24;;;;;;;2.62;1.70;;;;;;;21.73;44.84;99828.00;4497467;31;33761;-77
2022/08/10 03:14:14;;;;;;;2.33;1.58;;;;;;;21.73;44.81;99834.16;4498838;31;35057;-80
2022/08/10 03:16:42;;;;;;;3.62;1.83;;;;;;;21.70;44.91;99836.94;4499899;31;35177;-80
2022/08/10 03:19:12;;;;;;;2.62;1.60;;;;;;;21.62;45.05;99836.47;4499718;31;33662;-78
2022/08/10 03:22:02;;;;;;;2.17;1.42;;;;;;;21.39;45.59;99838.41;4498362;31;33905;-78
2022/08/10 03:24:30;;;;;;;3.62;1.70;;;;;;;21.83;44.72;99844.28;4500969;31;34816;-78
2022/08/10 03:27:00;;;;;;;6.35;1.90;;;;;;;21.98;44.58;99845.34;4498141;31;33856;-78
2022/08/10 03:29:30;;;;;;;5.53;1.52;;;;;;;21.82;44.67;99846.09;4494860;31;33562;-81
2022/08/10 03:32:18;;;;;;;2.80;1.75;;;;;;;21.85;44.65;99842.41;4493733;31;34006;-81
2022/08/10 03:34:47;;;;;;;6.12;1.77;;;;;;;22.04;44.40;99848.56;4498151;31;35040;-81
2022/08/10 03:37:14;;;;;;;2.60;1.75;;;;;;;22.26;43.87;99852.78;4497755;31;35121;-80
2022/08/10 03:39:42;;;;;;;1.75;1.52;;;;;;;22.50;43.33;99851.53;4500471;31;33130;-79
2022/08/10 03:42:11;;;;;;;3.10;1.90;;;;;;;21.75;45.03;99850.84;4499258;31;33868;-81
2022/08/10 03:44:40;;;;;;;2.85;1.87;;;;;;;21.62;45.49;99847.09;4499228;31;35167;-82
2022/08/10 03:47:10;;;;;;;4.90;1.80;;;;;;;21.87;44.82;99844.09;4497682;31;33969;-82
2022/08/10 03:49:45;;;;;;;3.28;1.77;;;;;;;21.85;44.90;99848.59;4499785;31;34175;-80
2022/08/10 03:52:14;;;;;;;2.62;1.85;;;;;;;22.28;43.96;99848.28;4502053;31;34338;-82
2022/08/10 03:54:43;;;;;;;3.33;1.90;;;;;;;21.70;45.40;99859.94;4501230;31;35013;-80
2022/08/10 03:57:11;;;;;;;4.65;1.90;;;;;;;21.72;45.19;99861.56;4492409;31;34432;-81
2022/08/10 03:59:39;;;;;;;2.30;1.60;;;;;;;21.72;45.18;99860.72;4498664;31;33595;-80
2022/08/10 04:02:07;;;;;;;2.55;1.80;;;;;;;21.67;45.08;99855.66;4493415;31;34038;-78
2022/08/10 04:04:55;;;;;;;2.28;1.50;;;;;;;21.92;44.49;99862.44;4501608;31;35237;-77
2022/08/10 04:07:23;;;;;;;6.55;1.87;;;;;;;21.91;44.66;99866.00;4488907;31;34519;-80
2022/08/10 04:09:52;;;;;;;2.35;1.60;;;;;;;22.07;44.17;99864.28;4501238;31;33598;-80
2022/08/10 04:12:25;;;;;;;2.92;1.60;;;;;;;22.00;44.30;99865.53;4501532;31;33953;-80
2022/08/10 04:14:53;;;;;;;2.58;1.70;;;;;;;21.64;44.99;99860.25;4501595;31;35974;-81
2022/08/10 04:17:22;;;;;;;2.50;1.42;;;;;;;21.98;44.26;99867.41;4501487;31;34456;-78
2022/08/10 04:20:18;;;;;;;2.97;1.23;;;;;;;21.91;44.26;99866.84;4502535;31;33368;-81
2022/08/10 04:22:49;;;;;;;3.07;1.80;;;;;;;21.63;44.95;99862.03;4498816;31;33971;-78
2022/08/10 04:25:18;;;;;;;2.40;1.48;;;;;;;21.93;44.43;99867.62;4501372;31;35996;-81
2022/08/10 04:27:47;;;;;;;2.15;1.50;;;;;;;22.32;43.38;99865.75;4499884;31;34683;-80
2022/08/10 04:30:15;;;;;;;1.65;1.40;;;;;;;22.31;43.33;99869.34;4501336;31;33315;-81
2022/08/10 04:32:46;;;;;;;2.97;1.35;;;;;;;22.75;42.71;99873.28;4498210;31;34158;-80
2022/08/10 04:35:16;;;;;;;5.32;1.67;;;;;;;22.74;42.26;99871.56;4501204;31;34816;-81
2022/08/10 04:37:45;;;;;;;3.47;1.40;;;;;;;22.86;42.16;99869.13;4501556;31;34347;-78
2022/08/10 04:40:18;;;;;;;2.22;1.40;;;;;;;23.00;41.91;99870.19;4501157;31;33416;-81
2022/08/10 04:42:58;;;;;;;2.05;1.12;;;;;;;23.01;42.11;99867.47;4499777;31;33895;-81
2022/08/10 04:45:29;;;;;;;2.55;1.40;;;;;;;23.68;40.64;99872.66;4502384;31;35904;-82
2022/08/10 04:48:19;;;;;;;3.42;1.67;;;;;;;23.62;40.38;99875.69;4501328;31;34531;-78
2022/08/10 04:51:09;;;;;;;4.93;1.80;;;;;;;23.67;40.68;99874.47;4501952;31;32842;-82
2022/08/10 04:53:48;;;;;;;4.37;1.67;;;;;;;23.23;40.75;99872.47;4501771;31;34084;-80
2022/08/10 04:56:35;;;;;;;2.58;1.58;;;;;;;23.82;40.28;99870.13;4501275;31;35152;-81
2022/08/10 04:59:05;;;;;;;2.28;1.55;;;;;;;23.67;39.85;99879.78;4502084;31;34567;-80
2022/08/10 05:01:34;;;;;;;2.33;1.45;;;;;;;24.06;39.69;99879.44;4500720;31;33723;-78
2022/08/10 05:04:23;;;;;;;7.80;1.58;;;;;;;23.76;39.71;99872.25;4500279;31;33934;-81
2022/08/10 05:07:07;;;;;;;2.25;1.60;;;;;;;23.78;40.08;99867.69;4499395;31;35441;-78
2022/08/10 05:09:37;;;;;;;5.57;1.40;;;;;;;23.89;39.70;99878.59;4488576;31;34558;-81
2022/08/10 05:12:25;;;;;;;1.83;1.40;;;;;;;24.16;39.33;99875.25;4490160;31;33450;-81
2022/08/10 05:14:53;;;;;;;3.60;1.60;;;;;;;24.07;38.97;99871.34;4501051;31;33925;-81
2022/08/10 05:17:22;;;;;;;2.35;1.50;;;;;;;24.50;38.47;99875.94;4501257;31;35018;-78
2022/08/10 05:19:50;;;;;;;2.53;1.35;;;;;;;24.59;37.58;99870.09;4501198;31;35183;-79
2022/08/10 05:22:37;;;;;;;4.35;1.52;;;;;;;24.20;38.12;99884.81;4501292;31;34075;-79
2022/08/10 05:25:07;;;;;;;1.75;1.50;;;;;;;24.36;37.60;99869.63;4500073;31;33981;-78
2022/08/10 05:27:35;;;;;;;3.22;1.27;;;;;;;24.86;37.25;99870.19;4487063;31;35251;-80
2022/08/10 05:30:05;;;;;;;1.77;1.30;;;;;;;24.47;37.18;99876.12;4500776;31;34520;-79
2022/08/10 05:32:34;;;;;;;4.47;1.50;;;;;;;24.59;37.70;99880.75;4499591;31;34185;-80
2022/08/10 05:35:22;;;;;;;2.78;1.30;;;;;;;24.92;36.51;99874.31;4499998;31;34049;-80
2022/08/10 05:37:51;;;;;;;3.83;1.58;;;;;;;24.18;37.91;99868.06;4499207;31;35122;-81
2022/08/10 05:40:42;;;;;;;1.83;1.20;;;;;;;24.70;37.14;99875.62;4499370;31;35222;-78
2022/08/10 05:43:16;;;;;;;2.80;1.10;;;;;;;24.71;37.30;99873.84;4498134;31;33523;-78
2022/08/10 05:45:45;;;;;;;3.75;1.27;;;;;;;24.31;37.96;99884.16;4500768;31;34394;-78
2022/08/10 05:48:35;;;;;;;4.15;1.10;;;;;;;24.77;36.57;99882.28;4500823;31;35126;-80
2022/08/10 05:51:24;;;;;;;1.85;1.35;;;;;;;25.43;36.03;99874.69;4500832;31;34421;-79
2022/08/10 05:53:52;;;;;;;3.12;1.37;;;;;;;25.50;35.63;99876.00;4499217;31;33616;-80
2022/08/10 05:56:35;;;;;;;5.87;1.55;;;;;;;24.65;36.43;99872.37;4500801;31;34133;-80
2022/08/10 05:59:25;;;;;;;3.33;1.50;;;;;;;24.94;35.99;99869.75;4484993;32;35069;-80
2022/08/10 06:02:23;;;;;;;3.37;1.40;;;;;;;24.74;36.09;99870.97;4487791;31;34792;-80
2022/08/10 06:05:10;;;;;;;5.45;1.40;;;;;;;24.94;36.29;99878.59;4501751;31;33545;-78
2022/08/10 06:07:41;;;;;;;1.80;1.08;;;;;;;25.43;35.30;99863.16;4495974;31;34047;-78
2022/08/10 06:10:12;;;;;;;3.40;1.25;;;;;;;25.59;34.73;99871.87;4485847;31;34964;-80
2022/08/10 06:12:41;;;;;;;2.00;1.30;;;;;;;25.69;34.37;99874.81;4498982;31;34450;-81
2022/08/10 06:15:24;;;;;;;4.90;1.75;;;;;;;25.65;33.95;99870.63;4500655;31;33454;-80
2022/08/10 06:18:14;;;;;;;6.90;1.77;;;;;;;25.45;34.10;99872.78;4488735;31;33935;-80
2022/08/10 06:20:42;;;;;;;2.78;1.12;;;;;;;26.00;33.71;99867.50;4500483;31;35865;-79
2022/08/10 06:23:11;;;;;;;1.75;1.33;;;;;;;26.41;33.37;99877.19;4490241;31;34498;-81
2022/08/10 06:25:39;;;;;;;3.05;1.40;;;;;;;25.88;33.75;99869.13;4486638;31;33385;-81
2022/08/10 06:28:29;;;;;;;3.30;1.50;;;;;;;25.97;33.71;99867.69;4499112;31;33742;-80
2022/08/10 06:30:58;;;;;;;3.15;1.55;;;;;;;26.88;32.50;99875.75;4499003;31;34426;-81
2022/08/10 06:33:29;;;;;;;3.03;1.30;;;;;;;26.67;32.35;99868.28;4488931;31;35501;-81
2022/08/10 06:35:58;;;;;;;3.08;1.30;;;;;;;27.14;31.64;99875.72;4485700;32;33440;-81
2022/08/10 06:38:29;;;;;;;1.73;1.05;;;;;;;26.72;32.48;99878.66;4494215;31;33839;-81
2022/08/10 06:41:00;;;;;;;1.37;1.27;;;;;;;27.01;32.25;99873.91;4500212;31;34921;-80
2022/08/10 06:43:29;;;;;;;1.98;1.27;;;;;;;27.51;31.35;99871.25;4498749;31;35210;-80
2022/08/10 06:46:11;;;;;;;1.08;0.90;;;;;;;27.08;31.68;99871.66;4498100;31;34466;-82
2022/08/10 06:48:49;;;;;;;1.75;1.20;;;;;;;26.91;32.33;99878.19;4487252;31;34401;-81
2022/08/10 06:51:23;;;;;;;2.70;1.20;;;;;;;27.26;31.62;99880.19;4484352;32;35014;-81
2022/08/10 06:53:54;;;;;;;1.62;1.27;;;;;;;27.89;30.74;99870.28;4495718;31;34347;-80
2022/08/10 06:56:27;;;;;;;2.00;1.42;;;;;;;27.36;31.33;99870.56;4500084;31;32480;-81
2022/08/10 06:59:18;;;;;;;3.37;1.30;;;;;;;26.93;31.99;99878.97;4497347;31;34977;-82
2022/08/10 07:01:53;;;;;;;2.22;1.20;;;;;;;27.71;31.65;99874.34;4499364;31;35876;-82
2022/08/10 07:04:28;;;;;;;2.40;1.25;;;;;;;28.37;30.28;99872.06;4485415;31;33760;-82
2022/08/10 07:07:02;;;;;;;2.58;1.30;;;;;;;28.08;30.22;99871.59;4485319;31;34304;-79
2022/08/10 07:09:34;;;;;;;1.48;1.00;;;;;;;28.46;30.28;99871.34;4496935;31;33864;-79
2022/08/10 07:12:04;;;;;;;2.62;1.30;;;;;;;28.79;29.07;99868.91;4483816;31;35159;-79
2022/08/10 07:14:38;;;;;;;2.53;1.20;;;;;;;28.78;29.62;99873.38;4498267;31;34334;-82
2022/08/10 07:17:10;;;;;;;1.95;1.05;;;;;;;28.68;30.00;99872.44;4499987;31;34376;-81
2022/08/10 07:19:45;;;;;;;1.92;1.20;;;;;;;29.00;29.12;99869.88;4495501;31;34132;-81
2022/08/10 07:22:18;;;;;;;1.58;1.12;;;;;;;29.44;29.08;99872.69;4486694;31;35390;-82
2022/08/10 07:25:07;;;;;;;4.78;1.42;;;;;;;28.71;28.93;99869.47;4501787;31;34514;-80
2022/08/10 07:27:38;;;;;;;3.35;1.33;;;;;;;29.44;28.11;99867.31;4500151;31;34273;-79
2022/08/10 07:30:28;;;;;;;6.07;2.05;;;;;;;28.97;29.75;99863.91;4501934;31;34024;-80
2022/08/10 07:32:57;;;;;;;1.62;1.05;;;;;;;29.29;28.89;99864.87;4499536;31;34331;-78
2022/08/10 07:35:26;;;;;;;1.25;1.05;;;;;;;29.51;28.36;99857.78;4485800;32;34007;-81
2022/08/10 07:38:02;;;;;;;3.95;1.17;;;;;;;28.41;29.93;99862.81;4492836;31;33826;-79
2022/08/10 07:40:32;;;;;;;2.37;1.37;;;;;;;29.29;29.68;99858.66;4501769;31;33921;-81
2022/08/10 07:43:01;;;;;;;4.28;1.50;;;;;;;29.93;27.83;99847.19;4500101;31;35892;-79
2022/08/10 07:45:31;;;;;;;1.83;1.20;;;;;;;30.33;27.19;99851.03;4501562;31;34260;-82
2022/08/10 07:48:02;;;;;;;1.62;1.12;;;;;;;30.54;27.22;99851.06;4502007;31;33423;-79
2022/08/10 07:50:36;;;;;;;1.77;1.20;;;;;;;30.48;28.11;99856.94;4502654;31;33990;-80
2022/08/10 07:53:11;;;;;;;1.95;0.82;;;;;;;29.75;27.42;99857.63;4499499;31;35111;-81
2022/08/10 07:55:42;;;;;;;1.85;1.20;;;;;;;29.60;27.39;99859.72;4501507;31;33130;-81
2022/08/10 07:58:35;;;;;;;3.35;1.20;;;;;;;30.05;27.30;99862.28;4498231;31;34106;-81
2022/08/10 08:01:03;;;;;;;6.05;1.20;;;;;;;29.92;26.62;99866.13;4501441;31;34138;-79
2022/08/10 08:03:32;;;;;;;1.35;1.08;;;;;;;30.26;26.34;99866.81;4500211;31;35088;-82
2022/08/10 08:06:02;;;;;;;2.85;0.90;;;;;;;30.56;26.67;99865.19;4501654;31;34342;-81
2022/08/10 08:08:41;;;;;;;2.47;1.27;;;;;;;30.11;26.09;99865.41;4500061;31;34172;-81
2022/08/10 08:11:10;;;;;;;2.22;1.08;;;;;;;31.23;25.99;99869.22;4500073;31;33076;-81
2022/08/10 08:13:54;;;;;;;2.58;1.10;;;;;;;31.70;25.16;99857.91;4500277;31;36013;-80
2022/08/10 08:16:23;;;;;;;1.37;1.20;;;;;;;31.54;25.26;99867.38;4501307;31;34375;-81
2022/08/10 08:18:53;;;;;;;2.25;1.20;;;;;;;30.61;25.93;99868.34;4501675;31;33875;-81
2022/08/10 08:21:41;;;;;;;1.98;1.17;;;;;;;30.25;25.89;99859.75;4501589;31;34078;-82
2022/08/10 08:24:32;;;;;;;2.62;1.10;;;;;;;30.48;26.80;99856.94;4499458;31;35901;-81
2022/08/10 08:27:03;;;;;;;3.10;1.10;;;;;;;31.33;25.53;99855.81;4501235;31;34530;-82
2022/08/10 08:29:34;;;;;;;1.55;1.08;;;;;;;31.34;25.77;99855.69;4500074;31;33640;-82
2022/08/10 08:32:03;;;;;;;2.50;0.90;;;;;;;31.39;25.08;99860.62;4501679;31;34018;-82
2022/08/10 08:34:35;;;;;;;1.67;1.10;;;;;;;32.05;24.62;99857.38;4486264;31;35856;-79
2022/08/10 08:37:06;;;;;;;1.95;1.00;;;;;;;31.77;24.79;99850.09;4486236;31;34589;-79
2022/08/10 08:39:35;;;;;;;2.97;1.10;;;;;;;31.41;25.07;99849.72;4497832;31;33490;-80
2022/08/10 08:42:16;;;;;;;2.15;0.90;;;;;;;31.35;25.56;99845.75;4486088;31;34172;-81
2022/08/10 08:45:35;;;;;;;1.67;1.10;;;;;;;31.18;25.35;99849.94;4486799;32;34566;-81
2022/08/10 08:48:36;;;;;;;4.07;1.10;;;;;;;31.12;24.97;99854.03;4483243;31;34987;-80
2022/08/10 08:51:36;;;;;;;2.03;1.05;;;;;;;31.55;25.90;99850.25;4502253;31;33371;-79
2022/08/10 08:54:48;;;;;;;0.75;0.75;;;;;;;31.99;23.99;99847.13;4472930;32;33154;-79
2022/08/10 08:57:22;;;;;;;1.52;1.00;;;;;;;31.43;24.46;99848.63;4487388;31;36002;-79
2022/08/10 09:00:17;;;;;;;3.37;1.40;;;;;;;31.11;24.33;99848.78;4485479;32;34361;-81
2022/08/10 09:02:45;;;;;;;4.55;0.90;;;;;;;31.66;23.30;99846.56;4487588;31;34226;-82
2022/08/10 09:05:41;;;;;;;1.52;0.80;;;;;;;32.23;23.84;99841.34;4502170;31;33903;-81
2022/08/10 09:08:55;;;;;;;2.22;1.00;;;;;;;31.66;22.45;99859.16;4496027;31;35970;-81
2022/08/10 09:11:55;;;;;;;1.70;1.00;;;;;;;32.65;23.20;99845.53;4472284;32;35209;-79
2022/08/10 09:14:52;;;;;;;2.42;1.10;;;;;;;32.54;23.58;99849.22;4499096;31;34277;-80
2022/08/10 09:17:57;;;;;;;3.10;1.08;;;;;;;31.72;24.39;99842.47;4487529;31;33150;-79
2022/08/10 09:20:52;;;;;;;2.30;0.93;;;;;;;31.72;24.63;99842.47;4485178;32;35597;-82
2022/08/10 09:23:28;;;;;;;1.33;0.80;;;;;;;32.78;21.94;99845.22;4491933;31;34900;-82
2022/08/10 09:26:31;;;;;;;1.30;1.00;;;;;;;32.40;23.60;99836.19;4489510;31;34297;-82
2022/08/10 09:29:01;;;;;;;3.70;1.00;;;;;;;32.57;22.47;99835.44;4499448;31;34729;-80
2022/08/10 09:31:47;;;;;;;2.33;1.35;;;;;;;31.93;22.73;99835.09;4501029;31;34935;-80
2022/08/10 09:34:57;;;;;;;0.88;0.73;;;;;;;32.57;23.40;99835.44;4499513;31;35446;-82
2022/08/10 09:37:56;;;;;;;2.00;1.10;;;;;;;32.82;21.97;99830.44;4489298;31;33455;-79
2022/08/10 09:40:51;;;;;;;2.87;1.42;;;;;;;32.74;21.85;99831.19;4502244;31;34424;-82
2022/08/10 09:43:54;;;;;;;2.00;1.10;;;;;;;32.46;23.42;99830.25;4492056;31;35958;-82
2022/08/10 09:46:29;;;;;;;1.80;1.23;;;;;;;32.48;23.21;99833.63;4501471;31;35244;-80
2022/08/10 09:48:57;;;;;;;3.92;1.20;;;;;;;32.95;22.75;99836.34;4500893;31;33542;-81
2022/08/10 09:51:42;;;;;;;1.85;1.10;;;;;;;32.74;22.48;99833.00;4502081;31;34105;-81
2022/08/10 09:54:42;;;;;;;1.42;0.90;;;;;;;32.65;23.77;99832.91;4498433;31;35203;-81
2022/08/10 09:57:33;;;;;;;2.55;1.12;;;;;;;33.46;22.35;99828.69;4500579;31;34611;-79
2022/08/10 10:00:25;;;;;;;1.25;1.00;;;;;;;33.58;21.58;99827.47;4484825;32;33303;-82
2022/08/10 10:03:16;;;;;;;3.40;1.00;;;;;;;33.72;21.82;99820.72;4486120;31;33804;-80
2022/08/10 10:06:10;;;;;;;2.97;0.77;;;;;;;33.90;21.18;99819.88;4500923;31;35867;-83
2022/08/10 10:08:51;;;;;;;1.60;1.08;;;;;;;33.59;22.32;99818.37;4500098;31;34499;-80
2022/08/10 10:11:47;;;;;;;1.10;1.00;;;;;;;33.67;21.70;99814.09;4495264;31;34231;-81
2022/08/10 10:14:29;;;;;;;1.55;0.90;;;;;;;33.52;21.13;99811.06;4499174;31;34670;-82
2022/08/10 10:17:19;;;;;;;1.77;1.12;;;;;;;34.49;20.50;99810.22;4500397;31;35985;-82
2022/08/10 10:20:10;;;;;;;1.05;0.95;;;;;;;33.58;21.25;99799.62;4498963;31;34423;-81
2022/08/10 10:23:09;;;;;;;4.15;0.80;;;;;;;33.61;21.38;99804.72;4500493;31;34013;-81
2022/08/10 10:25:44;;;;;;;1.02;0.75;;;;;;;33.86;21.00;99796.88;4485818;32;34059;-81
2022/08/10 10:28:41;;;;;;;1.48;0.90;;;;;;;33.61;20.32;99799.31;4488861;31;36002;-82
2022/08/10 10:31:37;;;;;;;1.10;0.80;;;;;;;33.41;19.71;99794.06;4501473;31;34542;-82
2022/08/10 10:34:13;;;;;;;1.98;0.98;;;;;;;33.16;20.97;99800.19;4486539;31;33520;-82
2022/08/10 10:36:44;;;;;;;2.35;1.10;;;;;;;33.72;20.60;99774.81;4500356;31;33953;-82
2022/08/10 10:39:13;;;;;;;2.12;1.12;;;;;;;33.71;20.80;99781.22;4498957;31;35085;-81
2022/08/10 10:42:32;;;;;;;2.72;0.90;;;;;;;33.48;20.81;99783.50;4498835;31;34651;-82
2022/08/10 10:45:20;;;;;;;2.35;1.20;;;;;;;33.42;21.14;99776.84;4471501;31;32899;-81
2022/08/10 10:48:06;;;;;;;2.20;0.80;;;;;;;33.03;20.92;99779.78;4500175;31;34045;-82
2022/08/10 10:50:54;;;;;;;1.35;0.80;;;;;;;32.54;21.00;99773.72;4485467;32;35048;-83
2022/08/10 10:53:50;;;;;;;1.40;1.10;;;;;;;32.26;23.02;99772.81;4486562;31;34518;-82
2022/08/10 10:56:42;;;;;;;1.62;0.70;;;;;;;33.12;20.74;99766.38;4500373;31;33574;-82
2022/08/10 10:59:29;;;;;;;2.95;1.00;;;;;;;31.79;21.05;99776.28;4497107;31;34138;-81
2022/08/10 11:02:49;;;;;;;7.15;1.10;;;;;;;31.14;21.88;99774.03;4498929;31;34744;-83
2022/08/10 11:05:42;;;;;;;1.58;0.77;;;;;;;30.75;22.84;99768.53;4498838;31;35077;-82
2022/08/10 11:08:15;;;;;;;1.05;0.82;;;;;;;31.71;20.92;99770.75;4500154;31;34260;-80
2022/08/10 11:10:52;;;;;;;4.47;1.20;;;;;;;31.92;19.81;99763.34;4499912;31;33868;-83
2022/08/10 11:13:26;;;;;;;2.35;1.17;;;;;;;31.79;22.19;99765.50;4498227;31;35159;-79
2022/08/10 11:16:29;;;;;;;3.08;0.80;;;;;;;32.07;22.78;99769.19;4498986;31;35060;-81
2022/08/10 11:19:26;;;;;;;0.95;0.77;;;;;;;32.65;21.81;99765.50;4497116;31;33618;-81
2022/08/10 11:22:25;;;;;;;1.45;1.02;;;;;;;32.91;21.64;99754.00;4496828;31;34287;-80
2022/08/10 11:25:02;;;;;;;1.42;0.98;;;;;;;32.70;20.69;99746.16;4498198;31;35896;-81
2022/08/10 11:27:37;;;;;;;1.10;0.50;;;;;;;33.88;20.46;99741.66;4500694;31;34449;-80
2022/08/10 11:30:12;;;;;;;4.20;1.13;;;;;;;33.74;19.92;99750.34;4498922;31;34147;-81
2022/08/10 11:32:46;;;;;;;0.82;0.73;;;;;;;33.17;19.21;99747.94;4484931;32;34153;-82
2022/08/10 11:35:26;;;;;;;1.00;0.73;;;;;;;32.40;19.65;99749.94;4496504;31;35043;-80
2022/08/10 11:38:13;;;;;;;1.65;0.95;;;;;;;31.35;21.59;99749.72;4499534;31;34310;-83
2022/08/10 11:41:19;;;;;;;1.87;1.00;;;;;;;31.06;22.17;99755.06;4484761;32;33458;-82
2022/08/10 11:44:28;;;;;;;2.75;0.77;;;;;;;31.03;22.88;99744.59;4488471;31;33387;-81
2022/08/10 11:47:06;;;;;;;1.52;0.85;;;;;;;32.39;21.09;99748.25;4499364;31;35823;-82
2022/08/10 11:49:52;;;;;;;2.55;0.80;;;;;;;32.38;20.97;99750.09;4499330;31;34494;-81
2022/08/10 11:52:35;;;;;;;1.00;0.73;;;;;;;32.64;20.39;99747.59;4499373;31;33443;-83
2022/08/10 11:55:12;;;;;;;0.88;0.60;;;;;;;32.23;21.21;99747.03;4497860;31;34733;-82
2022/08/10 11:57:43;;;;;;;0.90;0.68;;;;;;;33.20;19.65;99742.22;4486441;31;35895;-82
2022/08/10 12:00:23;;;;;;;2.92;0.75;;;;;;;33.23;19.80;99745.47;4486720;31;35086;-83
2022/08/10 12:03:02;;;;;;;18.37;1.77;;;;;;;33.81;18.64;99736.06;4499148;31;34338;-80
2022/08/10 12:05:34;;;;;;;1.12;0.82;;;;;;;34.08;19.17;99742.34;4498533;31;34711;-80
2022/08/10 12:08:23;;;;;;;1.45;0.82;;;;;;;32.85;18.94;99744.66;4499092;31;34943;-80
2022/08/10 12:11:14;;;;;;;2.33;1.10;;;;;;;33.21;19.10;99739.34;4495964;31;34464;-81
2022/08/10 12:13:56;;;;;;;1.85;1.10;;;;;;;32.68;19.17;99743.63;4500645;31;33857;-82
2022/08/10 12:16:48;;;;;;;3.42;0.80;;;;;;;32.72;19.78;99727.13;4502517;31;34032;-81
2022/08/10 12:19:42;;;;;;;0.98;0.70;;;;;;;33.45;18.60;99727.13;4499888;31;36015;-80
2022/08/10 12:22:38;;;;;;;2.53;0.80;;;;;;;33.23;19.14;99720.31;4500058;31;34483;-81
2022/08/10 12:25:15;;;;;;;1.17;0.70;;;;;;;33.75;18.96;99725.88;4499473;31;33485;-80
2022/08/10 12:28:30;;;;;;;1.95;0.80;;;;;;;33.31;20.02;99704.19;4490463;31;34060;-83
2022/08/10 12:31:24;;;;;;;0.82;0.70;;;;;;;34.22;18.45;99713.03;4485891;32;34815;-83
2022/08/10 12:34:05;;;;;;;1.12;0.90;;;;;;;33.41;18.70;99704.97;4487296;31;35189;-83